sensor_id;sensor_type;location;lat;lon;timestamp;P1;durP1;ratioP1;P2;durP2;ratioP2
23490;SDS011;14683;50.038;8.078;2022-12-24T06:30:13;12.25;;;2.10;;
23490;SDS011;14683;50.038;8.078;2022-12-24T06:35:05;10.48;;;2.28;;
23490;SDS011;14683;50.038;8.078;2022-12-24T06:39:57;8.10;;;2.25;;
23490;SDS011;14683;50.038;8.078;2022-12-24T06:42:23;11.45;;;2.63;;
23490;SDS011;14683;50.038;8.078;2022-12-24T06:44:49;10.52;;;2.22;;
23490;SDS011;14683;50.038;8.078;2022-12-24T06:47:15;11.57;;;2.60;;
23490;SDS011;14683;50.038;8.078;2022-12-24T06:49:41;5.38;;;2.40;;
23490;SDS011;14683;50.038;8.078;2022-12-24T06:52:07;13.73;;;2.90;;
23490;SDS011;14683;50.038;8.078;2022-12-24T06:54:33;9.05;;;2.40;;
23490;SDS011;14683;50.038;8.078;2022-12-24T06:56:59;11.23;;;2.70;;
23490;SDS011;14683;50.038;8.078;2022-12-24T06:59:25;12.35;;;2.75;;
23490;SDS011;14683;50.038;8.078;2022-12-24T07:01:51;10.70;;;3.63;;
23490;SDS011;14683;50.038;8.078;2022-12-24T07:04:17;20.10;;;3.20;;
23490;SDS011;14683;50.038;8.078;2022-12-24T07:06:43;15.60;;;3.95;;
23490;SDS011;14683;50.038;8.078;2022-12-24T07:09:11;15.68;;;3.05;;
23490;SDS011;14683;50.038;8.078;2022-12-24T07:11:39;17.77;;;3.10;;
23490;SDS011;14683;50.038;8.078;2022-12-24T07:14:05;13.52;;;2.65;;
23490;SDS011;14683;50.038;8.078;2022-12-24T07:16:31;16.60;;;3.22;;
23490;SDS011;14683;50.038;8.078;2022-12-24T07:18:57;14.45;;;3.55;;
23490;SDS011;14683;50.038;8.078;2022-12-24T07:21:23;18.33;;;3.20;;
23490;SDS011;14683;50.038;8.078;2022-12-24T07:23:49;16.50;;;3.83;;
23490;SDS011;14683;50.038;8.078;2022-12-24T07:26:15;15.48;;;3.95;;
23490;SDS011;14683;50.038;8.078;2022-12-24T07:28:41;16.38;;;3.00;;
23490;SDS011;14683;50.038;8.078;2022-12-24T07:31:07;15.45;;;3.42;;
23490;SDS011;14683;50.038;8.078;2022-12-24T07:33:33;23.90;;;3.20;;
23490;SDS011;14683;50.038;8.078;2022-12-24T07:36:03;13.18;;;3.40;;
23490;SDS011;14683;50.038;8.078;2022-12-24T07:38:31;16.55;;;3.20;;
23490;SDS011;14683;50.038;8.078;2022-12-24T07:40:57;18.80;;;3.83;;
23490;SDS011;14683;50.038;8.078;2022-12-24T07:45:49;11.77;;;2.78;;
23490;SDS011;14683;50.038;8.078;2022-12-24T07:48:15;16.02;;;3.13;;
23490;SDS011;14683;50.038;8.078;2022-12-24T07:50:41;16.10;;;3.45;;
23490;SDS011;14683;50.038;8.078;2022-12-24T07:53:07;16.13;;;3.58;;
23490;SDS011;14683;50.038;8.078;2022-12-24T07:55:34;19.67;;;3.28;;
23490;SDS011;14683;50.038;8.078;2022-12-24T07:58:00;22.42;;;3.90;;
23490;SDS011;14683;50.038;8.078;2022-12-24T08:00:26;17.83;;;3.17;;
23490;SDS011;14683;50.038;8.078;2022-12-24T08:02:52;18.33;;;3.83;;
23490;SDS011;14683;50.038;8.078;2022-12-24T08:05:18;18.23;;;5.00;;
23490;SDS011;14683;50.038;8.078;2022-12-24T08:07:44;20.35;;;6.55;;
23490;SDS011;14683;50.038;8.078;2022-12-24T08:10:10;19.83;;;5.68;;
23490;SDS011;14683;50.038;8.078;2022-12-24T08:12:36;23.48;;;5.22;;
23490;SDS011;14683;50.038;8.078;2022-12-24T08:15:03;20.50;;;4.68;;
23490;SDS011;14683;50.038;8.078;2022-12-24T08:17:29;17.02;;;3.67;;
23490;SDS011;14683;50.038;8.078;2022-12-24T08:19:55;15.02;;;3.17;;
23490;SDS011;14683;50.038;8.078;2022-12-24T08:22:21;18.58;;;3.80;;
23490;SDS011;14683;50.038;8.078;2022-12-24T08:24:47;21.95;;;4.80;;
23490;SDS011;14683;50.038;8.078;2022-12-24T08:27:13;22.27;;;4.32;;
23490;SDS011;14683;50.038;8.078;2022-12-24T08:29:39;20.30;;;5.00;;
23490;SDS011;14683;50.038;8.078;2022-12-24T08:32:05;22.52;;;5.13;;
23490;SDS011;14683;50.038;8.078;2022-12-24T08:34:31;20.05;;;5.00;;
23490;SDS011;14683;50.038;8.078;2022-12-24T08:36:57;22.35;;;4.97;;
23490;SDS011;14683;50.038;8.078;2022-12-24T08:39:23;16.02;;;5.80;;
23490;SDS011;14683;50.038;8.078;2022-12-24T08:41:49;21.88;;;5.97;;
23490;SDS011;14683;50.038;8.078;2022-12-24T08:44:15;20.10;;;4.63;;
23490;SDS011;14683;50.038;8.078;2022-12-24T08:46:41;15.07;;;3.58;;
23490;SDS011;14683;50.038;8.078;2022-12-24T08:49:07;13.13;;;2.65;;
23490;SDS011;14683;50.038;8.078;2022-12-24T08:51:33;22.30;;;3.53;;
23490;SDS011;14683;50.038;8.078;2022-12-24T08:53:59;14.38;;;4.35;;
23490;SDS011;14683;50.038;8.078;2022-12-24T08:56:25;15.20;;;3.83;;
23490;SDS011;14683;50.038;8.078;2022-12-24T08:58:51;16.67;;;4.38;;
23490;SDS011;14683;50.038;8.078;2022-12-24T09:01:18;21.52;;;4.93;;
23490;SDS011;14683;50.038;8.078;2022-12-24T09:03:44;14.40;;;3.13;;
23490;SDS011;14683;50.038;8.078;2022-12-24T09:08:36;19.45;;;2.85;;
23490;SDS011;14683;50.038;8.078;2022-12-24T09:11:04;20.10;;;3.80;;
23490;SDS011;14683;50.038;8.078;2022-12-24T09:13:34;19.02;;;3.28;;
23490;SDS011;14683;50.038;8.078;2022-12-24T09:18:27;21.00;;;3.50;;
23490;SDS011;14683;50.038;8.078;2022-12-24T09:23:29;17.77;;;3.80;;
23490;SDS011;14683;50.038;8.078;2022-12-24T09:25:55;14.85;;;3.65;;
23490;SDS011;14683;50.038;8.078;2022-12-24T09:30:55;13.70;;;3.33;;
23490;SDS011;14683;50.038;8.078;2022-12-24T09:33:25;19.52;;;3.80;;
23490;SDS011;14683;50.038;8.078;2022-12-24T09:35:52;15.35;;;3.13;;
23490;SDS011;14683;50.038;8.078;2022-12-24T09:38:18;18.38;;;3.60;;
23490;SDS011;14683;50.038;8.078;2022-12-24T09:40:45;24.90;;;4.97;;
23490;SDS011;14683;50.038;8.078;2022-12-24T09:43:16;20.67;;;4.90;;
23490;SDS011;14683;50.038;8.078;2022-12-24T09:46:08;19.50;;;3.80;;
23490;SDS011;14683;50.038;8.078;2022-12-24T09:48:44;19.13;;;5.07;;
23490;SDS011;14683;50.038;8.078;2022-12-24T09:51:33;16.50;;;4.78;;
23490;SDS011;14683;50.038;8.078;2022-12-24T09:54:12;15.38;;;3.42;;
23490;SDS011;14683;50.038;8.078;2022-12-24T09:56:43;14.20;;;2.92;;
23490;SDS011;14683;50.038;8.078;2022-12-24T09:59:12;14.25;;;3.05;;
23490;SDS011;14683;50.038;8.078;2022-12-24T10:01:39;12.23;;;2.63;;
23490;SDS011;14683;50.038;8.078;2022-12-24T10:04:10;15.32;;;2.65;;
23490;SDS011;14683;50.038;8.078;2022-12-24T10:14:39;12.05;;;2.80;;
23490;SDS011;14683;50.038;8.078;2022-12-24T10:23:23;15.85;;;4.57;;
23490;SDS011;14683;50.038;8.078;2022-12-24T10:29:18;13.35;;;2.67;;
23490;SDS011;14683;50.038;8.078;2022-12-24T10:31:26;14.48;;;2.75;;
23490;SDS011;14683;50.038;8.078;2022-12-24T10:33:56;15.55;;;3.30;;
23490;SDS011;14683;50.038;8.078;2022-12-24T10:36:26;16.33;;;2.90;;
23490;SDS011;14683;50.038;8.078;2022-12-24T10:38:53;9.25;;;2.53;;
23490;SDS011;14683;50.038;8.078;2022-12-24T10:43:45;15.70;;;3.47;;
23490;SDS011;14683;50.038;8.078;2022-12-24T10:46:14;10.23;;;2.80;;
23490;SDS011;14683;50.038;8.078;2022-12-24T10:49:05;14.90;;;3.15;;
23490;SDS011;14683;50.038;8.078;2022-12-24T10:53:59;14.13;;;3.10;;
23490;SDS011;14683;50.038;8.078;2022-12-24T10:56:26;13.52;;;5.47;;
23490;SDS011;14683;50.038;8.078;2022-12-24T10:58:53;11.13;;;3.67;;
23490;SDS011;14683;50.038;8.078;2022-12-24T11:01:41;14.75;;;5.53;;
23490;SDS011;14683;50.038;8.078;2022-12-24T11:04:18;18.88;;;6.50;;
23490;SDS011;14683;50.038;8.078;2022-12-24T11:07:00;17.58;;;6.78;;
23490;SDS011;14683;50.038;8.078;2022-12-24T11:11:58;25.20;;;10.30;;
23490;SDS011;14683;50.038;8.078;2022-12-24T11:14:25;19.80;;;6.65;;
23490;SDS011;14683;50.038;8.078;2022-12-24T11:16:57;23.15;;;6.80;;
23490;SDS011;14683;50.038;8.078;2022-12-24T11:19:31;19.45;;;6.22;;
23490;SDS011;14683;50.038;8.078;2022-12-24T11:22:03;17.73;;;5.90;;
23490;SDS011;14683;50.038;8.078;2022-12-24T11:24:46;15.48;;;5.85;;
23490;SDS011;14683;50.038;8.078;2022-12-24T11:29:50;16.45;;;5.45;;
23490;SDS011;14683;50.038;8.078;2022-12-24T11:34:43;16.80;;;3.85;;
23490;SDS011;14683;50.038;8.078;2022-12-24T11:40:02;12.15;;;5.13;;
23490;SDS011;14683;50.038;8.078;2022-12-24T11:44:58;14.50;;;4.18;;
23490;SDS011;14683;50.038;8.078;2022-12-24T11:47:36;14.70;;;3.65;;
23490;SDS011;14683;50.038;8.078;2022-12-24T11:50:20;14.40;;;4.20;;
23490;SDS011;14683;50.038;8.078;2022-12-24T11:58:17;18.80;;;5.38;;
23490;SDS011;14683;50.038;8.078;2022-12-24T12:00:47;19.38;;;4.85;;
23490;SDS011;14683;50.038;8.078;2022-12-24T12:03:26;17.38;;;3.65;;
23490;SDS011;14683;50.038;8.078;2022-12-24T12:05:58;11.88;;;3.63;;
23490;SDS011;14683;50.038;8.078;2022-12-24T12:08:25;16.48;;;3.63;;
23490;SDS011;14683;50.038;8.078;2022-12-24T12:10:52;13.68;;;3.03;;
23490;SDS011;14683;50.038;8.078;2022-12-24T12:13:21;14.80;;;3.42;;
23490;SDS011;14683;50.038;8.078;2022-12-24T12:16:13;15.52;;;3.70;;
23490;SDS011;14683;50.038;8.078;2022-12-24T12:18:50;11.15;;;3.20;;
23490;SDS011;14683;50.038;8.078;2022-12-24T12:21:20;13.77;;;3.17;;
23490;SDS011;14683;50.038;8.078;2022-12-24T12:24:00;14.43;;;2.97;;
23490;SDS011;14683;50.038;8.078;2022-12-24T12:26:29;15.68;;;3.20;;
23490;SDS011;14683;50.038;8.078;2022-12-24T12:29:17;20.63;;;3.83;;
23490;SDS011;14683;50.038;8.078;2022-12-24T12:31:52;11.95;;;3.20;;
23490;SDS011;14683;50.038;8.078;2022-12-24T12:37:27;16.35;;;2.95;;
23490;SDS011;14683;50.038;8.078;2022-12-24T12:39:58;16.02;;;3.83;;
23490;SDS011;14683;50.038;8.078;2022-12-24T12:42:29;13.40;;;3.03;;
23490;SDS011;14683;50.038;8.078;2022-12-24T12:47:39;16.33;;;4.13;;
23490;SDS011;14683;50.038;8.078;2022-12-24T12:50:12;10.52;;;2.90;;
23490;SDS011;14683;50.038;8.078;2022-12-24T12:55:21;18.08;;;3.92;;
23490;SDS011;14683;50.038;8.078;2022-12-24T12:58:07;15.77;;;2.80;;
23490;SDS011;14683;50.038;8.078;2022-12-24T13:00:38;14.70;;;2.83;;
23490;SDS011;14683;50.038;8.078;2022-12-24T13:03:21;16.50;;;5.78;;
23490;SDS011;14683;50.038;8.078;2022-12-24T13:17:52;13.23;;;4.07;;
23490;SDS011;14683;50.038;8.078;2022-12-24T13:20:30;15.55;;;5.72;;
23490;SDS011;14683;50.038;8.078;2022-12-24T13:22:59;14.02;;;3.42;;
23490;SDS011;14683;50.038;8.078;2022-12-24T13:25:44;12.50;;;2.85;;
23490;SDS011;14683;50.038;8.078;2022-12-24T13:30:40;17.33;;;3.08;;
23490;SDS011;14683;50.038;8.078;2022-12-24T13:33:44;10.82;;;3.15;;
23490;SDS011;14683;50.038;8.078;2022-12-24T13:36:02;14.38;;;3.47;;
23490;SDS011;14683;50.038;8.078;2022-12-24T13:38:49;14.63;;;3.28;;
23490;SDS011;14683;50.038;8.078;2022-12-24T13:51:47;19.55;;;4.50;;
23490;SDS011;14683;50.038;8.078;2022-12-24T13:54:16;16.33;;;3.05;;
23490;SDS011;14683;50.038;8.078;2022-12-24T13:56:45;18.73;;;3.78;;
23490;SDS011;14683;50.038;8.078;2022-12-24T14:01:57;16.77;;;4.50;;
23490;SDS011;14683;50.038;8.078;2022-12-24T14:04:25;20.92;;;4.00;;
23490;SDS011;14683;50.038;8.078;2022-12-24T14:06:59;15.85;;;3.38;;
23490;SDS011;14683;50.038;8.078;2022-12-24T14:09:27;18.05;;;4.13;;
23490;SDS011;14683;50.038;8.078;2022-12-24T14:14:30;15.18;;;3.38;;
23490;SDS011;14683;50.038;8.078;2022-12-24T14:16:57;19.13;;;4.53;;
23490;SDS011;14683;50.038;8.078;2022-12-24T14:19:26;22.92;;;3.92;;
23490;SDS011;14683;50.038;8.078;2022-12-24T14:22:01;19.58;;;4.88;;
23490;SDS011;14683;50.038;8.078;2022-12-24T14:27:05;14.10;;;3.53;;
23490;SDS011;14683;50.038;8.078;2022-12-24T14:29:45;14.05;;;4.07;;
23490;SDS011;14683;50.038;8.078;2022-12-24T14:32:15;15.50;;;3.67;;
23490;SDS011;14683;50.038;8.078;2022-12-24T14:34:41;18.15;;;5.57;;
23490;SDS011;14683;50.038;8.078;2022-12-24T14:37:09;17.88;;;6.35;;
23490;SDS011;14683;50.038;8.078;2022-12-24T14:39:45;31.45;;;8.38;;
23490;SDS011;14683;50.038;8.078;2022-12-24T14:42:20;21.77;;;6.57;;
23490;SDS011;14683;50.038;8.078;2022-12-24T14:44:57;17.42;;;5.63;;
23490;SDS011;14683;50.038;8.078;2022-12-24T14:50:34;25.55;;;5.68;;
23490;SDS011;14683;50.038;8.078;2022-12-24T14:55:58;17.92;;;4.93;;
23490;SDS011;14683;50.038;8.078;2022-12-24T14:58:37;13.30;;;3.85;;
23490;SDS011;14683;50.038;8.078;2022-12-24T15:01:18;15.80;;;4.40;;
23490;SDS011;14683;50.038;8.078;2022-12-24T15:04:00;13.80;;;4.90;;
23490;SDS011;14683;50.038;8.078;2022-12-24T15:06:26;18.10;;;3.83;;
23490;SDS011;14683;50.038;8.078;2022-12-24T15:08:53;20.45;;;4.65;;
23490;SDS011;14683;50.038;8.078;2022-12-24T15:11:20;19.63;;;5.60;;
23490;SDS011;14683;50.038;8.078;2022-12-24T15:13:48;20.05;;;5.22;;
23490;SDS011;14683;50.038;8.078;2022-12-24T15:16:21;15.02;;;4.88;;
23490;SDS011;14683;50.038;8.078;2022-12-24T15:19:05;17.52;;;4.63;;
23490;SDS011;14683;50.038;8.078;2022-12-24T15:21:37;18.92;;;3.95;;
23490;SDS011;14683;50.038;8.078;2022-12-24T15:24:26;23.33;;;4.38;;
23490;SDS011;14683;50.038;8.078;2022-12-24T15:26:54;22.23;;;5.97;;
23490;SDS011;14683;50.038;8.078;2022-12-24T15:29:22;16.30;;;4.53;;
23490;SDS011;14683;50.038;8.078;2022-12-24T15:31:56;25.60;;;7.05;;
23490;SDS011;14683;50.038;8.078;2022-12-24T15:34:34;18.55;;;6.22;;
23490;SDS011;14683;50.038;8.078;2022-12-24T15:37:02;26.02;;;6.20;;
23490;SDS011;14683;50.038;8.078;2022-12-24T15:39:30;19.83;;;4.95;;
23490;SDS011;14683;50.038;8.078;2022-12-24T15:41:57;22.20;;;8.38;;
23490;SDS011;14683;50.038;8.078;2022-12-24T15:44:39;31.33;;;9.38;;
23490;SDS011;14683;50.038;8.078;2022-12-24T15:47:18;26.02;;;8.25;;
23490;SDS011;14683;50.038;8.078;2022-12-24T15:49:47;17.45;;;6.90;;
23490;SDS011;14683;50.038;8.078;2022-12-24T15:52:16;20.02;;;5.80;;
23490;SDS011;14683;50.038;8.078;2022-12-24T15:54:43;20.65;;;6.22;;
23490;SDS011;14683;50.038;8.078;2022-12-24T15:57:11;17.83;;;5.38;;
23490;SDS011;14683;50.038;8.078;2022-12-24T15:59:38;17.85;;;4.38;;
23490;SDS011;14683;50.038;8.078;2022-12-24T16:04:49;20.55;;;8.38;;
23490;SDS011;14683;50.038;8.078;2022-12-24T16:07:25;23.02;;;8.77;;
23490;SDS011;14683;50.038;8.078;2022-12-24T16:10:22;22.70;;;8.52;;
23490;SDS011;14683;50.038;8.078;2022-12-24T16:12:51;22.30;;;9.13;;
23490;SDS011;14683;50.038;8.078;2022-12-24T16:15:17;22.60;;;6.78;;
23490;SDS011;14683;50.038;8.078;2022-12-24T16:17:46;19.63;;;5.43;;
23490;SDS011;14683;50.038;8.078;2022-12-24T16:20:20;12.43;;;5.25;;
23490;SDS011;14683;50.038;8.078;2022-12-24T16:22:47;15.52;;;4.57;;
23490;SDS011;14683;50.038;8.078;2022-12-24T16:27:43;17.75;;;5.72;;
23490;SDS011;14683;50.038;8.078;2022-12-24T16:30:10;13.73;;;4.35;;
23490;SDS011;14683;50.038;8.078;2022-12-24T16:32:36;11.15;;;4.05;;
23490;SDS011;14683;50.038;8.078;2022-12-24T16:37:29;21.20;;;4.93;;
23490;SDS011;14683;50.038;8.078;2022-12-24T16:39:55;14.75;;;3.90;;
23490;SDS011;14683;50.038;8.078;2022-12-24T16:42:21;17.63;;;4.35;;
23490;SDS011;14683;50.038;8.078;2022-12-24T16:45:06;12.68;;;4.00;;
23490;SDS011;14683;50.038;8.078;2022-12-24T16:47:33;16.30;;;3.92;;
23490;SDS011;14683;50.038;8.078;2022-12-24T16:50:01;14.55;;;3.88;;
23490;SDS011;14683;50.038;8.078;2022-12-24T16:52:29;15.27;;;4.78;;
23490;SDS011;14683;50.038;8.078;2022-12-24T16:54:58;15.63;;;4.00;;
23490;SDS011;14683;50.038;8.078;2022-12-24T16:57:24;15.05;;;4.70;;
23490;SDS011;14683;50.038;8.078;2022-12-24T16:59:51;22.42;;;4.90;;
23490;SDS011;14683;50.038;8.078;2022-12-24T17:02:19;11.48;;;5.85;;
23490;SDS011;14683;50.038;8.078;2022-12-24T17:04:46;16.15;;;5.53;;
23490;SDS011;14683;50.038;8.078;2022-12-24T17:07:13;17.48;;;5.05;;
23490;SDS011;14683;50.038;8.078;2022-12-24T17:09:41;12.40;;;4.55;;
23490;SDS011;14683;50.038;8.078;2022-12-24T17:14:33;18.40;;;4.72;;
23490;SDS011;14683;50.038;8.078;2022-12-24T17:16:59;12.30;;;4.05;;
23490;SDS011;14683;50.038;8.078;2022-12-24T17:19:25;14.98;;;4.05;;
23490;SDS011;14683;50.038;8.078;2022-12-24T17:21:51;12.52;;;3.65;;
23490;SDS011;14683;50.038;8.078;2022-12-24T17:24:17;14.85;;;3.75;;
23490;SDS011;14683;50.038;8.078;2022-12-24T17:26:43;10.25;;;3.58;;
23490;SDS011;14683;50.038;8.078;2022-12-24T17:29:09;14.43;;;3.95;;
23490;SDS011;14683;50.038;8.078;2022-12-24T17:31:35;9.07;;;3.45;;
23490;SDS011;14683;50.038;8.078;2022-12-24T17:34:03;9.45;;;3.72;;
23490;SDS011;14683;50.038;8.078;2022-12-24T17:36:30;14.70;;;3.80;;
23490;SDS011;14683;50.038;8.078;2022-12-24T17:38:56;10.93;;;4.53;;
23490;SDS011;14683;50.038;8.078;2022-12-24T17:41:22;12.90;;;4.47;;
23490;SDS011;14683;50.038;8.078;2022-12-24T17:43:48;19.77;;;9.60;;
23490;SDS011;14683;50.038;8.078;2022-12-24T17:46:18;18.27;;;6.95;;
23490;SDS011;14683;50.038;8.078;2022-12-24T17:48:48;20.05;;;7.80;;
23490;SDS011;14683;50.038;8.078;2022-12-24T17:51:16;17.50;;;6.72;;
23490;SDS011;14683;50.038;8.078;2022-12-24T17:53:44;18.05;;;10.35;;
23490;SDS011;14683;50.038;8.078;2022-12-24T17:58:40;20.73;;;8.00;;
23490;SDS011;14683;50.038;8.078;2022-12-24T18:01:11;22.20;;;9.13;;
23490;SDS011;14683;50.038;8.078;2022-12-24T18:03:39;22.67;;;11.68;;
23490;SDS011;14683;50.038;8.078;2022-12-24T18:06:05;28.88;;;13.55;;
23490;SDS011;14683;50.038;8.078;2022-12-24T18:08:32;21.25;;;10.18;;
23490;SDS011;14683;50.038;8.078;2022-12-24T18:13:24;14.05;;;5.20;;
23490;SDS011;14683;50.038;8.078;2022-12-24T18:15:51;11.10;;;4.82;;
23490;SDS011;14683;50.038;8.078;2022-12-24T18:18:17;12.43;;;4.18;;
23490;SDS011;14683;50.038;8.078;2022-12-24T18:20:43;12.02;;;4.53;;
23490;SDS011;14683;50.038;8.078;2022-12-24T18:23:09;12.50;;;4.38;;
23490;SDS011;14683;50.038;8.078;2022-12-24T18:25:35;10.07;;;3.85;;
23490;SDS011;14683;50.038;8.078;2022-12-24T18:28:01;10.95;;;4.22;;
23490;SDS011;14683;50.038;8.078;2022-12-24T18:30:27;10.15;;;3.50;;
23490;SDS011;14683;50.038;8.078;2022-12-24T18:32:53;13.75;;;4.03;;
23490;SDS011;14683;50.038;8.078;2022-12-24T18:35:19;12.05;;;3.30;;
23490;SDS011;14683;50.038;8.078;2022-12-24T18:37:47;12.43;;;3.70;;
23490;SDS011;14683;50.038;8.078;2022-12-24T18:40:13;12.60;;;3.60;;
23490;SDS011;14683;50.038;8.078;2022-12-24T18:45:06;14.93;;;4.75;;
23490;SDS011;14683;50.038;8.078;2022-12-24T18:47:32;8.57;;;3.80;;
23490;SDS011;14683;50.038;8.078;2022-12-24T18:50:00;12.88;;;4.50;;
23490;SDS011;14683;50.038;8.078;2022-12-24T18:52:26;10.48;;;4.28;;
23490;SDS011;14683;50.038;8.078;2022-12-24T18:54:56;9.32;;;3.85;;
23490;SDS011;14683;50.038;8.078;2022-12-24T18:57:22;12.23;;;4.10;;
23490;SDS011;14683;50.038;8.078;2022-12-24T18:59:48;10.40;;;3.85;;
23490;SDS011;14683;50.038;8.078;2022-12-24T19:02:14;13.10;;;4.03;;
23490;SDS011;14683;50.038;8.078;2022-12-24T19:04:40;13.50;;;5.35;;
23490;SDS011;14683;50.038;8.078;2022-12-24T19:07:06;11.95;;;4.97;;
23490;SDS011;14683;50.038;8.078;2022-12-24T19:09:32;10.10;;;4.78;;
23490;SDS011;14683;50.038;8.078;2022-12-24T19:11:58;10.60;;;4.32;;
23490;SDS011;14683;50.038;8.078;2022-12-24T19:14:24;12.45;;;4.53;;
23490;SDS011;14683;50.038;8.078;2022-12-24T19:16:50;7.40;;;3.40;;
23490;SDS011;14683;50.038;8.078;2022-12-24T19:19:16;16.15;;;7.65;;
23490;SDS011;14683;50.038;8.078;2022-12-24T19:21:45;32.15;;;16.10;;
23490;SDS011;14683;50.038;8.078;2022-12-24T19:24:11;34.70;;;16.77;;
23490;SDS011;14683;50.038;8.078;2022-12-24T19:26:38;24.50;;;11.48;;
23490;SDS011;14683;50.038;8.078;2022-12-24T19:29:04;19.77;;;8.82;;
23490;SDS011;14683;50.038;8.078;2022-12-24T19:31:30;18.42;;;8.13;;
23490;SDS011;14683;50.038;8.078;2022-12-24T19:33:57;20.52;;;9.80;;
23490;SDS011;14683;50.038;8.078;2022-12-24T19:36:26;23.58;;;8.30;;
23490;SDS011;14683;50.038;8.078;2022-12-24T19:38:57;17.08;;;7.68;;
23490;SDS011;14683;50.038;8.078;2022-12-24T19:41:24;20.65;;;8.15;;
23490;SDS011;14683;50.038;8.078;2022-12-24T19:43:53;15.13;;;6.13;;
23490;SDS011;14683;50.038;8.078;2022-12-24T19:46:23;15.57;;;5.97;;
23490;SDS011;14683;50.038;8.078;2022-12-24T19:48:55;17.83;;;5.13;;
23490;SDS011;14683;50.038;8.078;2022-12-24T19:51:22;12.13;;;4.70;;
23490;SDS011;14683;50.038;8.078;2022-12-24T19:53:48;13.20;;;4.35;;
23490;SDS011;14683;50.038;8.078;2022-12-24T19:56:15;9.05;;;3.65;;
23490;SDS011;14683;50.038;8.078;2022-12-24T19:58:42;13.75;;;3.72;;
23490;SDS011;14683;50.038;8.078;2022-12-24T20:01:10;8.98;;;3.28;;
23490;SDS011;14683;50.038;8.078;2022-12-24T20:03:37;13.73;;;3.78;;
23490;SDS011;14683;50.038;8.078;2022-12-24T20:08:29;12.63;;;4.97;;
23490;SDS011;14683;50.038;8.078;2022-12-24T20:10:55;10.68;;;4.43;;
23490;SDS011;14683;50.038;8.078;2022-12-24T20:15:47;15.38;;;5.30;;
23490;SDS011;14683;50.038;8.078;2022-12-24T20:18:13;19.27;;;6.25;;
23490;SDS011;14683;50.038;8.078;2022-12-24T20:23:06;26.65;;;10.55;;
23490;SDS011;14683;50.038;8.078;2022-12-24T20:25:33;22.80;;;10.90;;
23490;SDS011;14683;50.038;8.078;2022-12-24T20:28:00;29.88;;;12.63;;
23490;SDS011;14683;50.038;8.078;2022-12-24T20:30:26;21.40;;;10.32;;
23490;SDS011;14683;50.038;8.078;2022-12-24T20:32:53;17.30;;;6.85;;
23490;SDS011;14683;50.038;8.078;2022-12-24T20:35:19;10.77;;;4.75;;
23490;SDS011;14683;50.038;8.078;2022-12-24T20:40:11;16.60;;;5.60;;
23490;SDS011;14683;50.038;8.078;2022-12-24T20:45:04;8.07;;;4.40;;
23490;SDS011;14683;50.038;8.078;2022-12-24T20:47:31;15.48;;;6.13;;
23490;SDS011;14683;50.038;8.078;2022-12-24T20:49:57;15.50;;;5.97;;
23490;SDS011;14683;50.038;8.078;2022-12-24T20:52:23;18.42;;;4.93;;
23490;SDS011;14683;50.038;8.078;2022-12-24T20:54:49;13.32;;;4.70;;
23490;SDS011;14683;50.038;8.078;2022-12-24T20:57:15;12.45;;;4.10;;
23490;SDS011;14683;50.038;8.078;2022-12-24T20:59:41;17.67;;;4.40;;
23490;SDS011;14683;50.038;8.078;2022-12-24T21:02:12;7.50;;;3.60;;
23490;SDS011;14683;50.038;8.078;2022-12-24T21:04:38;7.47;;;3.30;;
23490;SDS011;14683;50.038;8.078;2022-12-24T21:07:04;14.77;;;4.20;;
23490;SDS011;14683;50.038;8.078;2022-12-24T21:09:30;15.70;;;3.85;;
23490;SDS011;14683;50.038;8.078;2022-12-24T21:14:23;11.48;;;3.63;;
23490;SDS011;14683;50.038;8.078;2022-12-24T21:16:51;14.18;;;3.80;;
23490;SDS011;14683;50.038;8.078;2022-12-24T21:19:19;16.88;;;3.72;;
23490;SDS011;14683;50.038;8.078;2022-12-24T21:21:46;10.00;;;3.50;;
23490;SDS011;14683;50.038;8.078;2022-12-24T21:24:13;12.98;;;3.40;;
23490;SDS011;14683;50.038;8.078;2022-12-24T21:26:39;14.45;;;3.63;;
23490;SDS011;14683;50.038;8.078;2022-12-24T21:29:05;17.10;;;4.80;;
23490;SDS011;14683;50.038;8.078;2022-12-24T21:31:34;15.88;;;4.07;;
23490;SDS011;14683;50.038;8.078;2022-12-24T21:34:01;18.05;;;4.60;;
23490;SDS011;14683;50.038;8.078;2022-12-24T21:36:28;17.75;;;5.43;;
23490;SDS011;14683;50.038;8.078;2022-12-24T21:38:54;15.48;;;5.28;;
23490;SDS011;14683;50.038;8.078;2022-12-24T21:41:21;17.92;;;5.82;;
23490;SDS011;14683;50.038;8.078;2022-12-24T21:43:48;20.33;;;4.85;;
23490;SDS011;14683;50.038;8.078;2022-12-24T21:51:39;21.00;;;3.97;;
23490;SDS011;14683;50.038;8.078;2022-12-24T21:54:06;13.43;;;5.15;;
23490;SDS011;14683;50.038;8.078;2022-12-24T21:56:51;11.73;;;3.72;;
23490;SDS011;14683;50.038;8.078;2022-12-24T21:59:37;19.52;;;5.38;;
23490;SDS011;14683;50.038;8.078;2022-12-24T22:02:03;13.10;;;4.32;;
23490;SDS011;14683;50.038;8.078;2022-12-24T22:04:30;16.67;;;3.70;;
23490;SDS011;14683;50.038;8.078;2022-12-24T22:06:57;10.00;;;3.40;;
23490;SDS011;14683;50.038;8.078;2022-12-24T22:09:41;13.75;;;4.00;;
23490;SDS011;14683;50.038;8.078;2022-12-24T22:12:27;20.33;;;5.70;;
23490;SDS011;14683;50.038;8.078;2022-12-24T22:14:55;12.82;;;4.88;;
23490;SDS011;14683;50.038;8.078;2022-12-24T22:17:21;16.05;;;5.68;;
23490;SDS011;14683;50.038;8.078;2022-12-24T22:19:47;17.08;;;6.60;;
23490;SDS011;14683;50.038;8.078;2022-12-24T22:22:13;18.42;;;6.38;;
23490;SDS011;14683;50.038;8.078;2022-12-24T22:24:39;16.85;;;6.35;;
23490;SDS011;14683;50.038;8.078;2022-12-24T22:27:05;15.40;;;6.03;;
23490;SDS011;14683;50.038;8.078;2022-12-24T22:29:31;21.05;;;6.47;;
23490;SDS011;14683;50.038;8.078;2022-12-24T22:31:57;20.80;;;6.03;;
23490;SDS011;14683;50.038;8.078;2022-12-24T22:34:23;19.88;;;6.80;;
23490;SDS011;14683;50.038;8.078;2022-12-24T22:36:49;13.32;;;4.93;;
23490;SDS011;14683;50.038;8.078;2022-12-24T22:39:15;16.38;;;4.68;;
